sensor_id;sensor_type;location;lat;lon;timestamp;pressure;altitude;pressure_sealevel;temperature;humidity
10348;BME280;5220;43.192;23.284;2023-04-01T00:00:00;95989.34;;;16.13;57.53
10348;BME280;5220;43.192;23.284;2023-04-01T00:02:27;95984.06;;;16.21;56.98
10348;BME280;5220;43.192;23.284;2023-04-01T00:04:54;95987.34;;;16.23;56.77
10348;BME280;5220;43.192;23.284;2023-04-01T00:07:20;95979.09;;;16.34;56.68
10348;BME280;5220;43.192;23.284;2023-04-01T00:09:47;95980.38;;;16.38;57.70
10348;BME280;5220;43.192;23.284;2023-04-01T00:12:14;95980.91;;;16.34;56.56
10348;BME280;5220;43.192;23.284;2023-04-01T00:14:43;95986.50;;;16.23;55.33
10348;BME280;5220;43.192;23.284;2023-04-01T00:17:09;95982.09;;;16.23;54.58
10348;BME280;5220;43.192;23.284;2023-04-01T00:19:36;95989.13;;;16.31;52.30
10348;BME280;5220;43.192;23.284;2023-04-01T00:22:03;95988.78;;;16.34;52.36
10348;BME280;5220;43.192;23.284;2023-04-01T00:24:30;95988.44;;;16.29;52.54
10348;BME280;5220;43.192;23.284;2023-04-01T00:26:57;95978.91;;;16.44;52.32
10348;BME280;5220;43.192;23.284;2023-04-01T00:29:24;95964.22;;;16.57;52.09
10348;BME280;5220;43.192;23.284;2023-04-01T00:31:55;95957.34;;;16.56;52.18
10348;BME280;5220;43.192;23.284;2023-04-01T00:34:22;95965.41;;;16.47;52.73
10348;BME280;5220;43.192;23.284;2023-04-01T00:36:51;95959.84;;;16.42;51.01
10348;BME280;5220;43.192;23.284;2023-04-01T00:39:18;95962.13;;;16.45;52.08
10348;BME280;5220;43.192;23.284;2023-04-01T00:41:45;95951.47;;;16.46;51.48
10348;BME280;5220;43.192;23.284;2023-04-01T00:44:15;95945.56;;;16.44;49.99
10348;BME280;5220;43.192;23.284;2023-04-01T00:46:43;95933.06;;;16.54;49.56
10348;BME280;5220;43.192;23.284;2023-04-01T00:49:12;95932.41;;;16.52;49.69
10348;BME280;5220;43.192;23.284;2023-04-01T00:51:41;95923.06;;;16.50;50.10
10348;BME280;5220;43.192;23.284;2023-04-01T00:54:09;95920.56;;;16.56;49.38
10348;BME280;5220;43.192;23.284;2023-04-01T00:56:37;95909.44;;;16.54;49.16
10348;BME280;5220;43.192;23.284;2023-04-01T00:59:10;95906.94;;;16.61;48.92
10348;BME280;5220;43.192;23.284;2023-04-01T01:01:37;95897.31;;;16.76;48.17
10348;BME280;5220;43.192;23.284;2023-04-01T01:04:04;95897.66;;;16.73;48.48
10348;BME280;5220;43.192;23.284;2023-04-01T01:06:39;95892.88;;;16.77;48.90
10348;BME280;5220;43.192;23.284;2023-04-01T01:09:23;95896.69;;;16.74;48.75
10348;BME280;5220;43.192;23.284;2023-04-01T01:11:55;95896.38;;;16.69;49.47
10348;BME280;5220;43.192;23.284;2023-04-01T01:14:34;95889.88;;;16.57;48.30
10348;BME280;5220;43.192;23.284;2023-04-01T01:17:09;95887.16;;;16.73;48.84
10348;BME280;5220;43.192;23.284;2023-04-01T01:19:55;95881.97;;;16.65;49.10
10348;BME280;5220;43.192;23.284;2023-04-01T01:22:38;95880.25;;;16.49;49.28
10348;BME280;5220;43.192;23.284;2023-04-01T01:25:25;95878.22;;;16.59;48.77
10348;BME280;5220;43.192;23.284;2023-04-01T01:28:08;95883.03;;;16.48;48.52
10348;BME280;5220;43.192;23.284;2023-04-01T01:30:43;95886.75;;;16.61;48.29
10348;BME280;5220;43.192;23.284;2023-04-01T01:33:27;95877.91;;;16.62;49.38
10348;BME280;5220;43.192;23.284;2023-04-01T01:36:02;95874.13;;;16.57;46.85
10348;BME280;5220;43.192;23.284;2023-04-01T01:38:33;95882.13;;;16.63;47.25
10348;BME280;5220;43.192;23.284;2023-04-01T01:41:01;95881.63;;;16.68;47.49
10348;BME280;5220;43.192;23.284;2023-04-01T01:43:32;95874.56;;;16.69;47.79
10348;BME280;5220;43.192;23.284;2023-04-01T01:46:02;95874.44;;;16.54;46.88
10348;BME280;5220;43.192;23.284;2023-04-01T01:48:34;95861.66;;;16.59;47.20
10348;BME280;5220;43.192;23.284;2023-04-01T01:51:03;95862.03;;;16.48;47.39
10348;BME280;5220;43.192;23.284;2023-04-01T01:53:31;95847.38;;;16.53;46.80
10348;BME280;5220;43.192;23.284;2023-04-01T01:55:58;95857.28;;;16.74;47.18
10348;BME280;5220;43.192;23.284;2023-04-01T01:58:27;95853.38;;;16.70;46.05
10348;BME280;5220;43.192;23.284;2023-04-01T02:00:57;95836.97;;;16.68;46.70
10348;BME280;5220;43.192;23.284;2023-04-01T02:03:27;95848.03;;;16.78;46.59
10348;BME280;5220;43.192;23.284;2023-04-01T02:05:57;95854.47;;;16.53;45.39
10348;BME280;5220;43.192;23.284;2023-04-01T02:08:31;95854.56;;;16.59;44.58
10348;BME280;5220;43.192;23.284;2023-04-01T02:11:02;95842.81;;;16.55;44.87
10348;BME280;5220;43.192;23.284;2023-04-01T02:13:34;95838.94;;;16.66;45.01
10348;BME280;5220;43.192;23.284;2023-04-01T02:16:06;95856.69;;;16.64;44.68
10348;BME280;5220;43.192;23.284;2023-04-01T02:18:36;95868.56;;;16.52;44.61
10348;BME280;5220;43.192;23.284;2023-04-01T02:21:05;95863.13;;;16.53;44.44
10348;BME280;5220;43.192;23.284;2023-04-01T02:23:36;95867.28;;;16.56;44.75
10348;BME280;5220;43.192;23.284;2023-04-01T02:26:05;95856.94;;;16.54;45.14
10348;BME280;5220;43.192;23.284;2023-04-01T02:28:33;95861.31;;;16.54;45.81
10348;BME280;5220;43.192;23.284;2023-04-01T02:31:01;95864.88;;;16.38;47.57
10348;BME280;5220;43.192;23.284;2023-04-01T02:33:29;95868.50;;;16.37;48.72
10348;BME280;5220;43.192;23.284;2023-04-01T02:35:57;95869.44;;;16.44;48.51
10348;BME280;5220;43.192;23.284;2023-04-01T02:38:24;95880.84;;;16.29;47.65
10348;BME280;5220;43.192;23.284;2023-04-01T02:40:59;95887.69;;;16.07;50.94
10348;BME280;5220;43.192;23.284;2023-04-01T02:43:27;95893.75;;;16.07;55.38
10348;BME280;5220;43.192;23.284;2023-04-01T02:45:54;95890.03;;;16.02;53.58
10348;BME280;5220;43.192;23.284;2023-04-01T02:48:22;95886.91;;;16.06;54.04
10348;BME280;5220;43.192;23.284;2023-04-01T02:50:51;95889.06;;;15.95;54.91
10348;BME280;5220;43.192;23.284;2023-04-01T02:53:19;95886.91;;;15.98;56.79
10348;BME280;5220;43.192;23.284;2023-04-01T02:55:47;95886.75;;;16.00;58.91
10348;BME280;5220;43.192;23.284;2023-04-01T02:58:18;95896.41;;;15.60;94.49
10348;BME280;5220;43.192;23.284;2023-04-01T03:00:46;95914.81;;;15.04;100.00
10348;BME280;5220;43.192;23.284;2023-04-01T03:03:14;95906.47;;;15.08;94.42
10348;BME280;5220;43.192;23.284;2023-04-01T03:05:42;95911.06;;;14.90;86.05
10348;BME280;5220;43.192;23.284;2023-04-01T03:08:09;95906.47;;;14.92;78.06
10348;BME280;5220;43.192;23.284;2023-04-01T03:10:37;95906.63;;;15.15;77.70
10348;BME280;5220;43.192;23.284;2023-04-01T03:13:03;95906.13;;;15.20;81.65
10348;BME280;5220;43.192;23.284;2023-04-01T03:15:32;95907.59;;;15.14;79.13
10348;BME280;5220;43.192;23.284;2023-04-01T03:17:59;95914.47;;;15.07;74.55
10348;BME280;5220;43.192;23.284;2023-04-01T03:20:26;95907.41;;;15.32;80.92
10348;BME280;5220;43.192;23.284;2023-04-01T03:22:53;95916.25;;;15.23;94.84
10348;BME280;5220;43.192;23.284;2023-04-01T03:25:19;95915.50;;;14.82;85.78
10348;BME280;5220;43.192;23.284;2023-04-01T03:27:46;95929.22;;;15.16;89.64
10348;BME280;5220;43.192;23.284;2023-04-01T03:30:13;95934.44;;;15.32;92.71
10348;BME280;5220;43.192;23.284;2023-04-01T03:32:41;95923.66;;;15.19;90.41
10348;BME280;5220;43.192;23.284;2023-04-01T03:35:08;95927.41;;;15.17;80.38
10348;BME280;5220;43.192;23.284;2023-04-01T03:37:36;95927.06;;;14.79;76.85
10348;BME280;5220;43.192;23.284;2023-04-01T03:40:03;95927.09;;;14.87;82.95
10348;BME280;5220;43.192;23.284;2023-04-01T03:42:30;95924.31;;;14.81;79.08
10348;BME280;5220;43.192;23.284;2023-04-01T03:44:57;95912.06;;;14.97;84.44
10348;BME280;5220;43.192;23.284;2023-04-01T03:47:24;95926.44;;;15.18;87.90
10348;BME280;5220;43.192;23.284;2023-04-01T03:49:52;95930.69;;;15.19;97.61
10348;BME280;5220;43.192;23.284;2023-04-01T03:52:19;95924.47;;;15.28;100.00
10348;BME280;5220;43.192;23.284;2023-04-01T03:54:46;95915.47;;;14.98;86.56
10348;BME280;5220;43.192;23.284;2023-04-01T03:57:12;95905.47;;;15.18;91.02
10348;BME280;5220;43.192;23.284;2023-04-01T03:59:39;95914.31;;;15.25;94.36
10348;BME280;5220;43.192;23.284;2023-04-01T04:02:06;95905.31;;;15.11;89.06
10348;BME280;5220;43.192;23.284;2023-04-01T04:04:32;95902.50;;;15.29;93.72
10348;BME280;5220;43.192;23.284;2023-04-01T04:07:01;95899.75;;;15.14;93.87
10348;BME280;5220;43.192;23.284;2023-04-01T04:09:29;95876.66;;;15.18;87.42
10348;BME280;5220;43.192;23.284;2023-04-01T04:11:56;95879.59;;;15.31;86.68
10348;BME280;5220;43.192;23.284;2023-04-01T04:14:23;95874.16;;;15.40;97.64
10348;BME280;5220;43.192;23.284;2023-04-01T04:16:50;95864.00;;;15.37;100.00
10348;BME280;5220;43.192;23.284;2023-04-01T04:19:17;95857.00;;;15.22;100.00
10348;BME280;5220;43.192;23.284;2023-04-01T04:21:44;95862.25;;;15.14;100.00
10348;BME280;5220;43.192;23.284;2023-04-01T04:24:12;95845.09;;;14.95;100.00
10348;BME280;5220;43.192;23.284;2023-04-01T04:26:38;95834.00;;;14.85;100.00
10348;BME280;5220;43.192;23.284;2023-04-01T04:29:05;95827.25;;;14.82;100.00
10348;BME280;5220;43.192;23.284;2023-04-01T04:31:32;95818.09;;;14.54;100.00
10348;BME280;5220;43.192;23.284;2023-04-01T04:33:59;95820.91;;;14.69;100.00
10348;BME280;5220;43.192;23.284;2023-04-01T04:36:26;95819.25;;;14.84;100.00
10348;BME280;5220;43.192;23.284;2023-04-01T04:38:53;95810.72;;;14.90;100.00
10348;BME280;5220;43.192;23.284;2023-04-01T04:41:21;95810.88;;;14.88;100.00
10348;BME280;5220;43.192;23.284;2023-04-01T04:43:49;95800.56;;;15.03;100.00
10348;BME280;5220;43.192;23.284;2023-04-01T04:46:17;95806.19;;;14.43;100.00
10348;BME280;5220;43.192;23.284;2023-04-01T04:48:43;95796.06;;;14.57;94.00
10348;BME280;5220;43.192;23.284;2023-04-01T04:51:13;95784.44;;;14.35;88.67
10348;BME280;5220;43.192;23.284;2023-04-01T04:53:40;95790.00;;;14.40;87.96
10348;BME280;5220;43.192;23.284;2023-04-01T04:56:07;95780.00;;;14.51;85.51
10348;BME280;5220;43.192;23.284;2023-04-01T04:58:36;95774.72;;;14.76;88.28
10348;BME280;5220;43.192;23.284;2023-04-01T05:01:06;95771.13;;;14.93;85.90
10348;BME280;5220;43.192;23.284;2023-04-01T05:03:33;95764.38;;;15.06;92.90
10348;BME280;5220;43.192;23.284;2023-04-01T05:05:59;95753.41;;;15.03;92.00
10348;BME280;5220;43.192;23.284;2023-04-01T05:08:26;95762.22;;;15.10;96.00
10348;BME280;5220;43.192;23.284;2023-04-01T05:10:53;95765.44;;;14.57;89.26
10348;BME280;5220;43.192;23.284;2023-04-01T05:13:19;95762.53;;;14.44;84.79
10348;BME280;5220;43.192;23.284;2023-04-01T05:15:47;95759.22;;;14.58;84.93
10348;BME280;5220;43.192;23.284;2023-04-01T05:18:14;95759.53;;;14.71;88.93
10348;BME280;5220;43.192;23.284;2023-04-01T05:20:46;95762.44;;;15.00;90.19
10348;BME280;5220;43.192;23.284;2023-04-01T05:23:13;95766.84;;;14.92;83.27
10348;BME280;5220;43.192;23.284;2023-04-01T05:25:39;95767.31;;;15.12;84.85
10348;BME280;5220;43.192;23.284;2023-04-01T05:28:06;95758.09;;;15.24;96.21
10348;BME280;5220;43.192;23.284;2023-04-01T05:30:33;95753.03;;;15.22;90.09
10348;BME280;5220;43.192;23.284;2023-04-01T05:33:01;95751.19;;;15.31;93.29
10348;BME280;5220;43.192;23.284;2023-04-01T05:35:28;95741.97;;;15.43;100.00
10348;BME280;5220;43.192;23.284;2023-04-01T05:37:55;95722.03;;;15.26;98.48
10348;BME280;5220;43.192;23.284;2023-04-01T05:40:21;95713.13;;;15.04;87.95
10348;BME280;5220;43.192;23.284;2023-04-01T05:42:48;95707.41;;;15.08;93.70
10348;BME280;5220;43.192;23.284;2023-04-01T05:45:15;95707.34;;;15.17;97.00
10348;BME280;5220;43.192;23.284;2023-04-01T05:47:42;95705.69;;;15.24;96.49
10348;BME280;5220;43.192;23.284;2023-04-01T05:50:10;95708.69;;;15.13;96.02
10348;BME280;5220;43.192;23.284;2023-04-01T05:52:37;95702.09;;;15.25;92.51
10348;BME280;5220;43.192;23.284;2023-04-01T05:55:05;95702.69;;;15.35;98.04
10348;BME280;5220;43.192;23.284;2023-04-01T05:57:32;95704.91;;;15.46;100.00
10348;BME280;5220;43.192;23.284;2023-04-01T05:59:58;95713.19;;;15.35;100.00
10348;BME280;5220;43.192;23.284;2023-04-01T06:02:25;95717.47;;;15.28;100.00
10348;BME280;5220;43.192;23.284;2023-04-01T06:04:59;95714.63;;;15.37;100.00
10348;BME280;5220;43.192;23.284;2023-04-01T06:07:29;95725.00;;;15.23;100.00
10348;BME280;5220;43.192;23.284;2023-04-01T06:09:56;95728.22;;;15.02;100.00
10348;BME280;5220;43.192;23.284;2023-04-01T06:12:32;95717.28;;;14.82;100.00
10348;BME280;5220;43.192;23.284;2023-04-01T06:15:20;95717.16;;;14.68;96.87
10348;BME280;5220;43.192;23.284;2023-04-01T06:18:00;95708.13;;;14.86;93.09
10348;BME280;5220;43.192;23.284;2023-04-01T06:20:41;95706.97;;;14.89;78.60
10348;BME280;5220;43.192;23.284;2023-04-01T06:23:24;95703.22;;;14.83;65.46
10348;BME280;5220;43.192;23.284;2023-04-01T06:25:59;95706.09;;;15.04;63.33
10348;BME280;5220;43.192;23.284;2023-04-01T06:28:44;95705.13;;;15.05;60.16
10348;BME280;5220;43.192;23.284;2023-04-01T06:31:26;95705.41;;;15.11;59.57
10348;BME280;5220;43.192;23.284;2023-04-01T06:34:21;95699.75;;;15.30;59.34
10348;BME280;5220;43.192;23.284;2023-04-01T06:37:11;95683.47;;;15.42;57.59
10348;BME280;5220;43.192;23.284;2023-04-01T06:42:54;95685.59;;;15.47;58.87
10348;BME280;5220;43.192;23.284;2023-04-01T06:45:32;95681.22;;;15.70;55.53
10348;BME280;5220;43.192;23.284;2023-04-01T06:48:12;95676.44;;;15.74;57.90
10348;BME280;5220;43.192;23.284;2023-04-01T06:50:48;95681.53;;;15.75;57.56
10348;BME280;5220;43.192;23.284;2023-04-01T06:53:21;95678.03;;;15.97;56.81
10348;BME280;5220;43.192;23.284;2023-04-01T06:55:56;95677.28;;;16.11;54.33
10348;BME280;5220;43.192;23.284;2023-04-01T06:58:29;95680.75;;;16.27;55.68
10348;BME280;5220;43.192;23.284;2023-04-01T07:01:00;95676.00;;;16.45;55.16
10348;BME280;5220;43.192;23.284;2023-04-01T07:03:32;95681.72;;;16.48;55.50
10348;BME280;5220;43.192;23.284;2023-04-01T07:06:03;95674.72;;;16.41;53.65
10348;BME280;5220;43.192;23.284;2023-04-01T07:08:34;95673.72;;;16.27;53.45
10348;BME280;5220;43.192;23.284;2023-04-01T07:11:02;95677.91;;;16.51;52.19
10348;BME280;5220;43.192;23.284;2023-04-01T07:13:35;95683.16;;;16.51;51.89
10348;BME280;5220;43.192;23.284;2023-04-01T07:16:12;95682.31;;;16.73;52.58
10348;BME280;5220;43.192;23.284;2023-04-01T07:18:43;95685.47;;;16.83;52.78
10348;BME280;5220;43.192;23.284;2023-04-01T07:21:22;95678.22;;;16.56;49.06
10348;BME280;5220;43.192;23.284;2023-04-01T07:23:50;95675.34;;;16.65;49.04
10348;BME280;5220;43.192;23.284;2023-04-01T07:26:21;95667.72;;;16.71;49.70
10348;BME280;5220;43.192;23.284;2023-04-01T07:28:51;95669.88;;;16.82;49.65
10348;BME280;5220;43.192;23.284;2023-04-01T07:31:41;95659.94;;;16.77;50.44
10348;BME280;5220;43.192;23.284;2023-04-01T07:34:19;95663.75;;;16.89;48.33
10348;BME280;5220;43.192;23.284;2023-04-01T07:36:53;95668.44;;;17.08;47.48
10348;BME280;5220;43.192;23.284;2023-04-01T07:39:30;95659.91;;;17.21;48.45
10348;BME280;5220;43.192;23.284;2023-04-01T07:42:09;95661.88;;;17.34;49.07
10348;BME280;5220;43.192;23.284;2023-04-01T07:44:47;95665.66;;;17.31;48.97
10348;BME280;5220;43.192;23.284;2023-04-01T07:47:38;95671.81;;;17.38;47.95
10348;BME280;5220;43.192;23.284;2023-04-01T07:50:17;95666.88;;;17.50;46.67
10348;BME280;5220;43.192;23.284;2023-04-01T07:52:58;95667.69;;;17.50;48.59
10348;BME280;5220;43.192;23.284;2023-04-01T07:55:30;95666.72;;;17.51;47.07
10348;BME280;5220;43.192;23.284;2023-04-01T07:58:05;95652.78;;;17.72;45.13
10348;BME280;5220;43.192;23.284;2023-04-01T08:00:41;95662.31;;;17.73;46.97
10348;BME280;5220;43.192;23.284;2023-04-01T08:03:31;95660.44;;;17.88;48.61
10348;BME280;5220;43.192;23.284;2023-04-01T08:06:04;95656.88;;;17.96;47.09
10348;BME280;5220;43.192;23.284;2023-04-01T08:08:44;95657.16;;;18.07;47.19
10348;BME280;5220;43.192;23.284;2023-04-01T08:11:24;95649.59;;;17.98;45.77
10348;BME280;5220;43.192;23.284;2023-04-01T08:14:03;95649.56;;;18.19;46.71
10348;BME280;5220;43.192;23.284;2023-04-01T08:16:39;95641.16;;;18.30;48.19
10348;BME280;5220;43.192;23.284;2023-04-01T08:19:22;95639.09;;;18.25;49.67
10348;BME280;5220;43.192;23.284;2023-04-01T08:21:54;95637.66;;;18.23;50.03
10348;BME280;5220;43.192;23.284;2023-04-01T08:24:28;95643.38;;;18.26;49.55
10348;BME280;5220;43.192;23.284;2023-04-01T08:26:59;95641.34;;;18.56;50.19
10348;BME280;5220;43.192;23.284;2023-04-01T08:29:36;95644.31;;;18.74;49.84
10348;BME280;5220;43.192;23.284;2023-04-01T08:32:11;95640.53;;;18.84;48.98
10348;BME280;5220;43.192;23.284;2023-04-01T08:34:40;95643.41;;;18.95;46.94
10348;BME280;5220;43.192;23.284;2023-04-01T08:37:14;95649.28;;;18.97;50.28
10348;BME280;5220;43.192;23.284;2023-04-01T08:39:46;95639.03;;;18.74;48.26
10348;BME280;5220;43.192;23.284;2023-04-01T08:42:36;95636.84;;;18.22;54.04
10348;BME280;5220;43.192;23.284;2023-04-01T08:45:20;95643.28;;;17.92;58.18
10348;BME280;5220;43.192;23.284;2023-04-01T08:48:05;95637.75;;;18.08;57.81
10348;BME280;5220;43.192;23.284;2023-04-01T08:50:51;95645.41;;;17.82;64.83
10348;BME280;5220;43.192;23.284;2023-04-01T08:53:31;95651.88;;;17.80;70.34
10348;BME280;5220;43.192;23.284;2023-04-01T08:56:09;95659.00;;;17.50;71.92
10348;BME280;5220;43.192;23.284;2023-04-01T08:59:04;95661.59;;;17.43;74.29
10348;BME280;5220;43.192;23.284;2023-04-01T09:02:00;95662.75;;;17.41;71.16
10348;BME280;5220;43.192;23.284;2023-04-01T09:04:46;95658.22;;;17.35;72.78
10348;BME280;5220;43.192;23.284;2023-04-01T09:07:31;95647.13;;;17.54;72.26
10348;BME280;5220;43.192;23.284;2023-04-01T09:10:23;95649.72;;;17.68;73.12
10348;BME280;5220;43.192;23.284;2023-04-01T09:13:12;95665.81;;;17.44;78.84
10348;BME280;5220;43.192;23.284;2023-04-01T09:16:18;95661.81;;;17.48;81.97
10348;BME280;5220;43.192;23.284;2023-04-01T09:19:11;95663.38;;;16.92;81.08
10348;BME280;5220;43.192;23.284;2023-04-01T09:21:58;95658.47;;;16.60;80.72
10348;BME280;5220;43.192;23.284;2023-04-01T09:24:42;95644.91;;;16.86;83.98
10348;BME280;5220;43.192;23.284;2023-04-01T09:27:25;95646.50;;;17.01;84.90
10348;BME280;5220;43.192;23.284;2023-04-01T09:36:25;95626.56;;;17.22;89.81
10348;BME280;5220;43.192;23.284;2023-04-01T09:38:59;95622.59;;;16.52;99.56
10348;BME280;5220;43.192;23.284;2023-04-01T09:41:39;95623.03;;;16.41;100.00
10348;BME280;5220;43.192;23.284;2023-04-01T09:44:14;95620.34;;;16.49;100.00
10348;BME280;5220;43.192;23.284;2023-04-01T09:46:58;95613.44;;;16.48;100.00
10348;BME280;5220;43.192;23.284;2023-04-01T09:52:28;95615.63;;;16.89;99.87
10348;BME280;5220;43.192;23.284;2023-04-01T09:55:19;95600.25;;;16.86;100.00
10348;BME280;5220;43.192;23.284;2023-04-01T10:01:10;95591.28;;;17.52;97.86
10348;BME280;5220;43.192;23.284;2023-04-01T10:13:10;95577.63;;;17.42;92.54
10348;BME280;5220;43.192;23.284;2023-04-01T10:16:03;95582.38;;;17.53;85.68
10348;BME280;5220;43.192;23.284;2023-04-01T10:19:22;95586.16;;;17.86;87.81
10348;BME280;5220;43.192;23.284;2023-04-01T10:22:24;95595.81;;;17.79;84.98
10348;BME280;5220;43.192;23.284;2023-04-01T10:25:19;95591.66;;;17.49;89.66
10348;BME280;5220;43.192;23.284;2023-04-01T10:28:22;95602.41;;;17.33;91.17
10348;BME280;5220;43.192;23.284;2023-04-01T10:34:09;95599.25;;;16.87;98.09
10348;BME280;5220;43.192;23.284;2023-04-01T10:36:52;95602.44;;;16.67;100.00
10348;BME280;5220;43.192;23.284;2023-04-01T10:49:12;95555.91;;;16.97;100.00
10348;BME280;5220;43.192;23.284;2023-04-01T10:54:59;95536.47;;;17.34;100.00
10348;BME280;5220;43.192;23.284;2023-04-01T11:00:45;95530.13;;;17.43;100.00
10348;BME280;5220;43.192;23.284;2023-04-01T11:13:03;95556.59;;;17.63;100.00
10348;BME280;5220;43.192;23.284;2023-04-01T11:15:58;95558.47;;;17.48;100.00
10348;BME280;5220;43.192;23.284;2023-04-01T11:19:07;95559.41;;;17.40;100.00
10348;BME280;5220;43.192;23.284;2023-04-01T11:21:59;95560.13;;;17.34;100.00
10348;BME280;5220;43.192;23.284;2023-04-01T11:27:49;95566.72;;;17.24;100.00
10348;BME280;5220;43.192;23.284;2023-04-01T11:30:28;95578.69;;;16.90;100.00
10348;BME280;5220;43.192;23.284;2023-04-01T11:33:02;95591.63;;;16.48;100.00
10348;BME280;5220;43.192;23.284;2023-04-01T11:36:06;95592.19;;;16.73;100.00
10348;BME280;5220;43.192;23.284;2023-04-01T11:39:00;95598.09;;;16.60;100.00
10348;BME280;5220;43.192;23.284;2023-04-01T11:41:36;95610.22;;;16.61;100.00
10348;BME280;5220;43.192;23.284;2023-04-01T11:44:16;95617.31;;;16.08;100.00
10348;BME280;5220;43.192;23.284;2023-04-01T11:49:39;95661.28;;;16.06;100.00
10348;BME280;5220;43.192;23.284;2023-04-01T11:52:32;95665.53;;;16.22;100.00
10348;BME280;5220;43.192;23.284;2023-04-01T11:55:18;95682.69;;;16.10;100.00
10348;BME280;5220;43.192;23.284;2023-04-01T11:58:01;95692.28;;;15.80;100.00
10348;BME280;5220;43.192;23.284;2023-04-01T12:03:53;95692.75;;;15.84;100.00
10348;BME280;5220;43.192;23.284;2023-04-01T12:06:23;95697.69;;;15.79;100.00
10348;BME280;5220;43.192;23.284;2023-04-01T12:09:03;95690.78;;;15.86;100.00
10348;BME280;5220;43.192;23.284;2023-04-01T12:11:35;95675.44;;;15.97;100.00
10348;BME280;5220;43.192;23.284;2023-04-01T12:14:12;95676.31;;;15.90;100.00
10348;BME280;5220;43.192;23.284;2023-04-01T12:16:51;95678.81;;;15.83;100.00
10348;BME280;5220;43.192;23.284;2023-04-01T12:19:28;95681.34;;;15.99;100.00
10348;BME280;5220;43.192;23.284;2023-04-01T12:24:55;95697.13;;;15.91;100.00
10348;BME280;5220;43.192;23.284;2023-04-01T12:27:54;95676.91;;;16.00;100.00
10348;BME280;5220;43.192;23.284;2023-04-01T12:30:32;95689.13;;;16.07;100.00
10348;BME280;5220;43.192;23.284;2023-04-01T12:33:14;95688.16;;;16.08;100.00
10348;BME280;5220;43.192;23.284;2023-04-01T12:35:55;95682.28;;;16.21;100.00
10348;BME280;5220;43.192;23.284;2023-04-01T12:38:31;95668.69;;;16.40;100.00
10348;BME280;5220;43.192;23.284;2023-04-01T12:41:09;95650.06;;;16.64;100.00
10348;BME280;5220;43.192;23.284;2023-04-01T12:47:12;95616.81;;;16.86;100.00
10348;BME280;5220;43.192;23.284;2023-04-01T12:49:55;95598.97;;;16.96;100.00
10348;BME280;5220;43.192;23.284;2023-04-01T12:52:32;95570.72;;;17.19;100.00
10348;BME280;5220;43.192;23.284;2023-04-01T12:55:30;95550.19;;;17.51;100.00
10348;BME280;5220;43.192;23.284;2023-04-01T12:58:34;95542.13;;;17.52;100.00
10348;BME280;5220;43.192;23.284;2023-04-01T13:04:14;95512.16;;;17.68;
10348;BME280;5220;43.192;23.284;2023-04-01T13:06:58;95501.81;;;17.45;100.00
10348;BME280;5220;43.192;23.284;2023-04-01T13:09:39;95492.81;;;17.33;100.00
10348;BME280;5220;43.192;23.284;2023-04-01T13:12:29;95506.56;;;17.35;100.00
10348;BME280;5220;43.192;23.284;2023-04-01T13:15:16;95498.13;;;17.40;100.00
10348;BME280;5220;43.192;23.284;2023-04-01T13:17:52;95493.63;;;17.34;100.00
10348;BME280;5220;43.192;23.284;2023-04-01T13:20:30;95475.53;;;17.45;100.00
10348;BME280;5220;43.192;23.284;2023-04-01T13:23:09;95473.47;;;17.62;96.26
10348;BME280;5220;43.192;23.284;2023-04-01T13:25:46;95473.22;;;17.57;100.00
10348;BME280;5220;43.192;23.284;2023-04-01T13:28:19;95467.69;;;17.73;99.20
10348;BME280;5220;43.192;23.284;2023-04-01T13:30:50;95466.19;;;17.64;100.00
10348;BME280;5220;43.192;23.284;2023-04-01T13:33:26;95470.88;;;17.68;90.65
10348;BME280;5220;43.192;23.284;2023-04-01T13:36:08;95468.03;;;17.42;97.66
10348;BME280;5220;43.192;23.284;2023-04-01T13:38:57;95464.41;;;17.43;100.00
10348;BME280;5220;43.192;23.284;2023-04-01T13:41:38;95455.59;;;17.30;100.00
10348;BME280;5220;43.192;23.284;2023-04-01T13:44:11;95446.88;;;17.29;100.00
10348;BME280;5220;43.192;23.284;2023-04-01T13:47:04;95450.66;;;17.48;100.00
10348;BME280;5220;43.192;23.284;2023-04-01T13:49:53;95426.88;;;17.84;100.00
10348;BME280;5220;43.192;23.284;2023-04-01T13:55:53;95414.88;;;18.15;86.03
10348;BME280;5220;43.192;23.284;2023-04-01T13:58:43;95422.41;;;17.78;97.39
10348;BME280;5220;43.192;23.284;2023-04-01T14:01:20;95397.97;;;17.97;88.44
10348;BME280;5220;43.192;23.284;2023-04-01T14:04:10;95406.81;;;17.83;100.00
10348;BME280;5220;43.192;23.284;2023-04-01T14:06:49;95399.94;;;17.54;74.70
10348;BME280;5220;43.192;23.284;2023-04-01T14:09:40;95391.09;;;17.55;78.38
10348;BME280;5220;43.192;23.284;2023-04-01T14:12:16;95377.72;;;17.29;71.17
10348;BME280;5220;43.192;23.284;2023-04-01T14:14:59;95358.66;;;17.48;68.78
10348;BME280;5220;43.192;23.284;2023-04-01T14:17:43;95373.16;;;17.37;71.68
10348;BME280;5220;43.192;23.284;2023-04-01T14:20:22;95370.03;;;17.27;67.10
10348;BME280;5220;43.192;23.284;2023-04-01T14:23:03;95393.22;;;17.17;71.26
10348;BME280;5220;43.192;23.284;2023-04-01T14:25:55;95391.63;;;17.23;66.15
10348;BME280;5220;43.192;23.284;2023-04-01T14:28:30;95396.44;;;17.47;59.98
10348;BME280;5220;43.192;23.284;2023-04-01T14:31:11;95398.97;;;17.55;58.18
10348;BME280;5220;43.192;23.284;2023-04-01T14:33:46;95400.50;;;17.70;58.49
10348;BME280;5220;43.192;23.284;2023-04-01T14:36:43;95380.19;;;17.58;56.27
10348;BME280;5220;43.192;23.284;2023-04-01T14:39:26;95387.25;;;17.57;56.24
10348;BME280;5220;43.192;23.284;2023-04-01T14:42:14;95392.88;;;17.27;55.42
10348;BME280;5220;43.192;23.284;2023-04-01T14:44:55;95413.47;;;17.23;59.19
10348;BME280;5220;43.192;23.284;2023-04-01T14:47:32;95433.56;;;17.31;58.62
10348;BME280;5220;43.192;23.284;2023-04-01T14:50:06;95440.25;;;17.33;57.66
10348;BME280;5220;43.192;23.284;2023-04-01T14:52:36;95442.56;;;17.43;57.63
10348;BME280;5220;43.192;23.284;2023-04-01T14:55:27;95450.22;;;17.65;57.04